Santa Ana, Bolivia
Current Conditions -  °F | °C
As of 2:00 PM on Thursday 30 Oct 2014 (Local Time) from SLSA Reporting Station
Scattered Clouds Scattered Clouds  
Wind Chill: 91°   Ceiling: Unl
Heat Index: 100°   Visibility: 6mi
Dew Point: 73°   Wind: 21mph
Humidity: 55%   Direction: 320°NW
Pressure: 29.65"   Gusts: NA
Location:  13.77°S, 65.56°W
Report Text: SLSA 301800Z 32018KT 9999 SCT017 FEW023CB 33/23 Q1004
Loading
Personal Weather Stations






























Interactive Weather Map
Tropical Storm Tracking
New forecast layout! Learn more

10-Day Weather Forecast

Advertisements
Track Severe Weather on mobile